createdAt,value
2018-12-12T00:00:01.798Z,30.73
2018-12-12T00:02:28.727Z,27.33
2018-12-12T00:04:55.654Z,30.43
2018-12-12T00:07:22.721Z,30.77
2018-12-12T00:09:49.432Z,32.80
2018-12-12T00:12:16.252Z,31.67
2018-12-12T00:14:42.980Z,29.53
2018-12-12T00:17:09.686Z,31.60
2018-12-12T00:19:36.505Z,34.97
2018-12-12T00:22:03.374Z,32.50
2018-12-12T00:24:30.093Z,29.60
2018-12-12T00:26:57.150Z,29.90
2018-12-12T00:29:23.870Z,27.50
2018-12-12T00:31:50.603Z,26.27
2018-12-12T00:34:17.459Z,25.37
2018-12-12T00:36:44.157Z,26.63
2018-12-12T00:39:10.927Z,25.13
2018-12-12T00:41:37.701Z,26.00
2018-12-12T00:44:04.414Z,26.97
2018-12-12T00:46:31.427Z,27.10
2018-12-12T00:48:58.512Z,29.93
2018-12-12T00:51:25.224Z,31.97
2018-12-12T00:53:52.122Z,32.73
2018-12-12T00:56:18.896Z,34.03
2018-12-12T00:58:45.812Z,66.23
2018-12-12T01:01:12.624Z,41.83
2018-12-12T01:03:39.378Z,34.63
2018-12-12T01:06:06.094Z,33.90
2018-12-12T01:08:32.959Z,37.87
2018-12-12T01:11:06.226Z,45.07
2018-12-12T01:13:32.945Z,34.97
2018-12-12T01:15:59.660Z,36.27
2018-12-12T01:18:26.591Z,32.83
2018-12-12T01:20:53.305Z,34.07
2018-12-12T01:23:20.017Z,35.60
2018-12-12T01:25:46.769Z,34.23
2018-12-12T01:28:13.487Z,31.73
2018-12-12T01:30:40.245Z,28.43
2018-12-12T01:33:07.029Z,26.47
2018-12-12T01:35:33.751Z,27.97
2018-12-12T01:38:00.496Z,28.53
2018-12-12T01:40:27.429Z,30.27
2018-12-12T01:42:54.159Z,27.30
2018-12-12T01:45:20.892Z,28.93
2018-12-12T01:47:47.678Z,27.50
2018-12-12T01:50:14.631Z,28.47
2018-12-12T01:52:41.422Z,28.73
2018-12-12T01:55:08.191Z,27.63
2018-12-12T01:57:34.997Z,26.53
2018-12-12T02:00:01.713Z,26.53
2018-12-12T02:02:28.477Z,28.33
2018-12-12T02:04:55.188Z,23.97
2018-12-12T02:07:21.911Z,26.73
2018-12-12T02:09:48.897Z,42.50
2018-12-12T02:12:15.713Z,38.93
2018-12-12T02:14:42.576Z,33.80
2018-12-12T02:17:09.501Z,29.83
2018-12-12T02:19:36.220Z,26.77
2018-12-12T02:22:03.001Z,24.70
2018-12-12T02:24:29.756Z,23.37
2018-12-12T02:26:56.564Z,22.70
2018-12-12T02:29:23.282Z,21.40
2018-12-12T02:31:50.047Z,20.47
2018-12-12T02:34:16.896Z,20.13
2018-12-12T02:36:43.841Z,19.80
2018-12-12T02:39:10.611Z,21.03
2018-12-12T02:41:37.321Z,19.07
2018-12-12T02:44:04.049Z,17.40
2018-12-12T02:46:30.834Z,18.33
2018-12-12T02:48:57.597Z,17.17
2018-12-12T02:51:24.325Z,18.77
2018-12-12T02:53:51.099Z,19.97
2018-12-12T02:56:17.844Z,18.10
2018-12-12T02:58:44.643Z,17.73
2018-12-12T03:01:11.430Z,18.40
2018-12-12T03:03:38.489Z,19.20
2018-12-12T03:06:05.371Z,17.73
2018-12-12T03:08:32.129Z,20.83
2018-12-12T03:10:58.860Z,20.87
2018-12-12T03:13:25.575Z,20.13
2018-12-12T03:15:52.360Z,19.47
2018-12-12T03:18:19.072Z,19.57
2018-12-12T03:20:45.889Z,20.27
2018-12-12T03:23:12.640Z,19.40
2018-12-12T03:25:39.363Z,19.27
2018-12-12T03:28:06.075Z,18.53
2018-12-12T03:30:32.845Z,19.10
2018-12-12T03:32:59.571Z,19.90
2018-12-12T03:35:26.473Z,20.87
2018-12-12T03:37:53.577Z,19.43
2018-12-12T03:40:20.335Z,20.17
2018-12-12T03:42:47.470Z,20.90
2018-12-12T03:45:14.248Z,20.40
2018-12-12T03:47:40.986Z,19.50
2018-12-12T03:50:07.714Z,20.80
2018-12-12T03:52:34.512Z,18.93
2018-12-12T03:55:01.286Z,19.80
2018-12-12T03:57:28.017Z,21.03
2018-12-12T03:59:54.776Z,19.83
2018-12-12T04:02:21.485Z,22.07
2018-12-12T04:04:48.342Z,22.57
2018-12-12T04:07:15.124Z,23.53
2018-12-12T04:09:41.829Z,21.47
2018-12-12T04:12:08.676Z,22.43
2018-12-12T04:14:35.450Z,23.53
2018-12-12T04:17:02.298Z,25.20
2018-12-12T04:19:29.030Z,26.63
2018-12-12T04:21:55.870Z,26.47
2018-12-12T04:24:24.587Z,26.00
2018-12-12T04:26:51.478Z,25.97
2018-12-12T04:29:18.270Z,27.00
2018-12-12T04:31:44.967Z,25.93
2018-12-12T04:34:11.683Z,24.57
2018-12-12T04:36:38.441Z,24.03
2018-12-12T04:39:05.388Z,23.83
2018-12-12T04:41:32.108Z,20.63
2018-12-12T04:43:58.886Z,22.53
2018-12-12T04:46:25.599Z,24.13
2018-12-12T04:48:52.315Z,24.90
2018-12-12T04:51:19.093Z,22.47
2018-12-12T04:53:45.809Z,23.10
2018-12-12T04:56:12.658Z,23.90
2018-12-12T04:58:39.407Z,22.00
2018-12-12T05:01:06.300Z,21.37
2018-12-12T05:03:33.034Z,21.43
2018-12-12T05:05:59.933Z,21.00
2018-12-12T05:08:26.705Z,20.03
2018-12-12T05:10:53.469Z,18.73
2018-12-12T05:13:20.290Z,20.27
2018-12-12T05:15:47.204Z,19.60
2018-12-12T05:18:13.936Z,21.17
2018-12-12T05:20:40.684Z,21.07
2018-12-12T05:23:07.432Z,21.00
2018-12-12T05:25:34.135Z,19.77
2018-12-12T05:28:00.921Z,20.37
2018-12-12T05:30:27.628Z,21.37
2018-12-12T05:32:54.367Z,21.07
2018-12-12T05:35:21.137Z,22.57
2018-12-12T05:37:51.811Z,22.20
2018-12-12T05:40:16.796Z,23.00
2018-12-12T05:42:43.673Z,22.97
2018-12-12T05:45:10.396Z,23.27
2018-12-12T05:47:37.117Z,22.53
2018-12-12T05:50:04.186Z,24.40
2018-12-12T05:52:30.946Z,27.67
2018-12-12T05:54:57.697Z,26.00
2018-12-12T05:57:24.565Z,27.97
2018-12-12T05:59:51.416Z,28.00
2018-12-12T06:02:18.805Z,27.73
2018-12-12T06:04:45.860Z,25.97
2018-12-12T06:07:12.596Z,30.40
2018-12-12T06:09:39.432Z,29.47
2018-12-12T06:12:06.246Z,30.47
2018-12-12T06:14:32.975Z,29.50
2018-12-12T06:16:59.692Z,32.03
2018-12-12T06:19:26.497Z,31.87
2018-12-12T06:21:53.299Z,30.83
2018-12-12T06:24:20.148Z,33.13
2018-12-12T06:26:46.930Z,33.27
2018-12-12T06:29:13.737Z,33.10
2018-12-12T06:31:40.627Z,32.17
2018-12-12T06:34:07.445Z,31.30
2018-12-12T06:36:34.159Z,35.10
2018-12-12T06:39:01.100Z,34.30
2018-12-12T06:41:27.852Z,32.37
2018-12-12T06:43:54.605Z,32.67
2018-12-12T06:46:21.325Z,36.77
2018-12-12T06:48:48.128Z,34.60
2018-12-12T06:51:14.966Z,34.50
2018-12-12T06:53:41.698Z,39.10
2018-12-12T06:56:08.457Z,36.90
2018-12-12T06:58:35.183Z,40.90
2018-12-12T07:01:02.025Z,41.93
2018-12-12T07:03:28.820Z,36.37
2018-12-12T07:05:55.564Z,40.27
2018-12-12T07:08:22.510Z,39.83
2018-12-12T07:10:49.254Z,38.90
2018-12-12T07:13:16.004Z,38.67
2018-12-12T07:15:42.732Z,38.30
2018-12-12T07:18:09.508Z,40.93
2018-12-12T07:20:36.238Z,40.83
2018-12-12T07:23:02.995Z,43.07
2018-12-12T07:25:29.800Z,43.63
2018-12-12T07:27:56.514Z,40.13
2018-12-12T07:30:23.281Z,42.03
2018-12-12T07:32:50.088Z,37.17
2018-12-12T07:35:16.808Z,39.67
2018-12-12T07:37:43.601Z,39.20
2018-12-12T07:40:10.373Z,40.00
2018-12-12T07:42:37.091Z,49.07
2018-12-12T07:45:03.827Z,51.47
2018-12-12T07:47:30.639Z,50.13
2018-12-12T07:49:57.377Z,54.97
2018-12-12T07:52:24.147Z,50.70
2018-12-12T07:54:50.928Z,53.00
2018-12-12T07:57:17.770Z,46.60
2018-12-12T07:59:44.598Z,48.33
2018-12-12T08:02:11.445Z,45.77
2018-12-12T08:04:38.160Z,45.40
2018-12-12T08:07:04.880Z,51.80
2018-12-12T08:09:31.675Z,52.00
2018-12-12T08:11:58.417Z,47.10
2018-12-12T08:14:25.166Z,44.67
2018-12-12T08:16:51.963Z,45.30
2018-12-12T08:19:18.718Z,43.07
2018-12-12T08:21:45.485Z,40.57
2018-12-12T08:24:12.266Z,42.83
2018-12-12T08:26:38.988Z,40.93
2018-12-12T08:29:05.776Z,42.23
2018-12-12T08:31:32.573Z,41.73
2018-12-12T08:33:59.297Z,44.30
2018-12-12T08:36:26.009Z,49.97
2018-12-12T08:38:52.815Z,47.23
2018-12-12T08:41:19.614Z,47.90
2018-12-12T08:43:46.343Z,44.07
2018-12-12T08:46:13.310Z,40.90
2018-12-12T08:48:40.039Z,43.87
2018-12-12T08:51:07.075Z,38.50
2018-12-12T08:53:33.919Z,36.07
2018-12-12T08:56:00.656Z,39.73
2018-12-12T08:58:27.499Z,40.20
2018-12-12T09:00:54.325Z,40.33
2018-12-12T09:03:21.106Z,42.20
2018-12-12T09:05:47.874Z,42.30
2018-12-12T09:08:14.664Z,44.90
2018-12-12T09:10:41.497Z,40.53
2018-12-12T09:13:08.954Z,42.30
2018-12-12T09:15:35.738Z,42.70
2018-12-12T09:18:02.588Z,40.33
2018-12-12T09:20:29.358Z,41.90
2018-12-12T09:22:56.116Z,43.20
2018-12-12T09:25:22.857Z,42.47
2018-12-12T09:27:49.605Z,38.53
2018-12-12T09:30:16.404Z,45.57
2018-12-12T09:32:43.136Z,42.70
2018-12-12T09:35:10.013Z,41.77
2018-12-12T09:37:36.769Z,42.33
2018-12-12T09:40:03.715Z,45.87
2018-12-12T09:42:32.379Z,37.60
2018-12-12T09:44:59.327Z,42.63
2018-12-12T09:47:26.187Z,41.70
2018-12-12T09:49:52.931Z,42.53
2018-12-12T09:52:21.004Z,42.73
2018-12-12T09:54:47.761Z,41.23
2018-12-12T09:57:14.567Z,41.97
2018-12-12T09:59:41.381Z,45.37
2018-12-12T10:02:08.277Z,41.80
2018-12-12T10:04:34.997Z,43.97
2018-12-12T10:07:01.864Z,40.80
2018-12-12T10:09:28.684Z,48.53
2018-12-12T10:11:55.419Z,41.23
2018-12-12T10:14:22.189Z,42.73
2018-12-12T10:16:48.948Z,44.67
2018-12-12T10:19:15.692Z,42.93
2018-12-12T10:21:42.461Z,42.03
2018-12-12T10:24:09.331Z,43.77
2018-12-12T10:26:36.291Z,43.60
2018-12-12T10:29:03.053Z,45.87
2018-12-12T10:31:29.764Z,42.20
2018-12-12T10:33:56.976Z,44.90
2018-12-12T10:36:23.890Z,44.87
2018-12-12T10:38:50.741Z,38.10
2018-12-12T10:41:17.647Z,38.20
2018-12-12T10:43:44.514Z,38.67
2018-12-12T10:46:11.986Z,36.53
2018-12-12T10:48:38.729Z,36.87
2018-12-12T10:51:05.630Z,39.10
2018-12-12T10:53:32.661Z,41.07
2018-12-12T10:55:59.436Z,37.93
2018-12-12T10:58:26.207Z,34.53
2018-12-12T11:00:58.840Z,29.77
2018-12-12T11:03:31.273Z,31.03
2018-12-12T11:05:57.999Z,27.50
2018-12-12T11:08:25.725Z,31.10
2018-12-12T11:10:52.496Z,32.17
2018-12-12T11:13:19.305Z,33.73
2018-12-12T11:15:46.059Z,33.60
2018-12-12T11:18:12.834Z,34.93
2018-12-12T11:20:39.570Z,33.80
2018-12-12T11:23:06.299Z,34.53
2018-12-12T11:25:33.066Z,32.93
2018-12-12T11:27:59.812Z,39.77
2018-12-12T11:30:26.531Z,41.27
2018-12-12T11:32:53.311Z,30.30
2018-12-12T11:35:20.037Z,26.43
2018-12-12T11:37:46.777Z,23.50
2018-12-12T11:40:13.534Z,28.37
2018-12-12T11:42:40.316Z,28.93
2018-12-12T11:45:07.052Z,28.20
2018-12-12T11:47:33.813Z,26.50
2018-12-12T11:50:00.527Z,30.23
2018-12-12T11:52:27.323Z,31.50
2018-12-12T11:54:54.114Z,32.30
2018-12-12T11:57:21.284Z,29.87
2018-12-12T11:59:48.010Z,30.80
2018-12-12T12:02:14.802Z,30.87
2018-12-12T12:04:41.539Z,32.70
2018-12-12T12:07:08.269Z,33.53
2018-12-12T12:09:35.058Z,29.17
2018-12-12T12:12:01.790Z,33.67
2018-12-12T12:14:28.601Z,37.73
2018-12-12T12:16:55.602Z,37.60
2018-12-12T12:19:22.348Z,35.10
2018-12-12T12:21:49.074Z,35.37
2018-12-12T12:24:15.826Z,39.73
2018-12-12T12:26:42.688Z,38.50
2018-12-12T12:29:09.538Z,40.27
2018-12-12T12:31:36.487Z,41.97
2018-12-12T12:34:03.426Z,38.17
2018-12-12T12:36:30.697Z,38.33
2018-12-12T12:38:57.493Z,37.67
2018-12-12T12:41:24.224Z,38.33
2018-12-12T12:43:50.943Z,35.90
2018-12-12T12:46:17.708Z,39.60
2018-12-12T12:48:44.416Z,41.37
2018-12-12T12:51:11.118Z,42.90
2018-12-12T12:53:37.872Z,43.33
2018-12-12T12:56:04.614Z,46.47
2018-12-12T12:58:31.349Z,46.10
2018-12-12T13:00:58.096Z,41.87
2018-12-12T13:03:25.002Z,40.23
2018-12-12T13:05:51.957Z,45.33
2018-12-12T13:08:18.715Z,39.07
2018-12-12T13:10:45.764Z,43.33
2018-12-12T13:13:12.671Z,47.63
2018-12-12T13:15:39.672Z,46.60
2018-12-12T13:18:06.509Z,42.47
2018-12-12T13:20:33.721Z,38.97
2018-12-12T13:23:00.544Z,41.37
2018-12-12T13:25:27.297Z,38.97
2018-12-12T13:27:54.062Z,40.43
2018-12-12T13:30:20.821Z,46.23
2018-12-12T13:32:47.567Z,42.10
2018-12-12T13:35:14.285Z,39.63
2018-12-12T13:37:41.057Z,40.47
2018-12-12T13:40:07.778Z,40.40
2018-12-12T13:42:34.904Z,42.70
2018-12-12T13:45:01.664Z,41.70
2018-12-12T13:47:28.400Z,45.20
2018-12-12T13:49:55.281Z,46.23
2018-12-12T13:52:22.203Z,43.13
2018-12-12T13:54:48.920Z,39.30
2018-12-12T13:57:15.636Z,43.73
2018-12-12T13:59:42.411Z,43.40
2018-12-12T14:02:09.248Z,47.73
2018-12-12T14:04:35.958Z,52.53
2018-12-12T14:07:02.740Z,49.40
2018-12-12T14:09:29.458Z,48.90
2018-12-12T14:11:56.178Z,53.53
2018-12-12T14:14:22.929Z,48.37
2018-12-12T14:16:49.673Z,43.93
2018-12-12T14:19:16.412Z,49.67
2018-12-12T14:21:43.167Z,56.77
2018-12-12T14:24:09.894Z,57.27
2018-12-12T14:26:36.616Z,51.93
2018-12-12T14:29:03.390Z,52.07
2018-12-12T14:31:30.109Z,48.63
2018-12-12T14:33:56.822Z,42.13
2018-12-12T14:36:23.628Z,43.77
2018-12-12T14:38:50.457Z,49.63
2018-12-12T14:41:17.192Z,47.23
2018-12-12T14:43:43.954Z,42.27
2018-12-12T14:46:10.670Z,40.20
2018-12-12T14:48:37.748Z,43.33
2018-12-12T14:51:04.510Z,45.43
2018-12-12T14:53:31.266Z,49.57
2018-12-12T14:55:58.037Z,48.53
2018-12-12T14:58:24.882Z,46.13
2018-12-12T15:00:51.616Z,50.10
2018-12-12T15:03:18.341Z,46.80
2018-12-12T15:05:45.112Z,47.00
2018-12-12T15:08:11.844Z,48.73
2018-12-12T15:10:38.955Z,54.73
2018-12-12T15:13:05.719Z,51.10
2018-12-12T15:15:32.478Z,55.37
2018-12-12T15:17:59.217Z,59.07
2018-12-12T15:20:25.964Z,57.17
2018-12-12T15:22:52.683Z,52.93
2018-12-12T15:25:19.402Z,48.57
2018-12-12T15:27:46.156Z,50.73
2018-12-12T15:30:12.874Z,51.67
2018-12-12T15:32:39.964Z,50.13
2018-12-12T15:35:06.720Z,49.03
2018-12-12T15:37:33.652Z,49.87
2018-12-12T15:40:00.362Z,50.87
2018-12-12T15:42:27.136Z,51.07
2018-12-12T15:44:53.996Z,50.80
2018-12-12T15:47:20.709Z,56.13
2018-12-12T15:49:47.501Z,55.37
2018-12-12T15:52:14.220Z,53.57
2018-12-12T15:54:41.298Z,49.80
2018-12-12T15:57:08.071Z,48.07
2018-12-12T15:59:34.942Z,49.30
2018-12-12T16:02:01.993Z,48.20
2018-12-12T16:04:28.895Z,62.97
2018-12-12T16:06:55.658Z,58.33
2018-12-12T16:09:22.550Z,56.57
2018-12-12T16:11:49.293Z,45.13
2018-12-12T16:14:17.432Z,46.87
2018-12-12T16:16:44.247Z,52.33
2018-12-12T16:21:56.787Z,57.73
2018-12-12T16:24:23.483Z,44.57
2018-12-12T16:26:50.218Z,44.90
2018-12-12T16:29:16.963Z,40.00
2018-12-12T16:31:44.055Z,38.10
2018-12-12T16:34:10.789Z,37.97
2018-12-12T16:36:37.561Z,44.67
2018-12-12T16:39:05.947Z,42.43
2018-12-12T16:41:32.676Z,44.13
2018-12-12T16:43:59.451Z,48.63
2018-12-12T16:46:26.161Z,43.40
2018-12-12T16:48:52.870Z,47.53
2018-12-12T16:51:19.849Z,46.97
2018-12-12T16:53:46.606Z,53.00
2018-12-12T16:56:13.439Z,45.80
2018-12-12T16:58:40.199Z,44.43
2018-12-12T17:01:06.922Z,39.40
2018-12-12T17:03:33.659Z,41.03
2018-12-12T17:06:00.427Z,39.73
2018-12-12T17:08:27.147Z,40.70
2018-12-12T17:10:53.869Z,40.57
2018-12-12T17:13:20.627Z,43.83
2018-12-12T17:15:47.345Z,46.90
2018-12-12T17:18:14.194Z,48.03
2018-12-12T17:20:41.075Z,47.37
2018-12-12T17:23:07.803Z,47.23
2018-12-12T17:25:34.649Z,53.33
2018-12-12T17:28:01.484Z,51.67
2018-12-12T17:30:28.213Z,49.77
2018-12-12T17:32:54.921Z,47.60
2018-12-12T17:35:21.793Z,45.97
2018-12-12T17:37:48.651Z,49.57
2018-12-12T17:40:15.379Z,46.07
2018-12-12T17:42:42.130Z,45.57
2018-12-12T17:45:08.848Z,45.27
2018-12-12T17:47:35.579Z,45.00
2018-12-12T17:50:02.350Z,42.03
2018-12-12T17:52:29.063Z,48.10
2018-12-12T17:54:55.793Z,48.50
2018-12-12T17:57:22.584Z,52.03
2018-12-12T17:59:49.409Z,52.57
2018-12-12T18:02:16.249Z,51.70
2018-12-12T18:04:43.156Z,54.40
2018-12-12T18:07:09.876Z,54.57
2018-12-12T18:09:36.684Z,52.13
2018-12-12T18:12:03.453Z,52.30
2018-12-12T18:14:30.176Z,50.70
2018-12-12T18:16:56.884Z,51.03
2018-12-12T18:19:23.652Z,52.87
2018-12-12T18:21:50.374Z,55.87
2018-12-12T18:24:17.096Z,54.43
2018-12-12T18:26:43.860Z,59.80
2018-12-12T18:29:10.829Z,57.17
2018-12-12T18:31:37.544Z,61.00
2018-12-12T18:34:04.294Z,69.73
2018-12-12T18:36:31.022Z,66.90
2018-12-12T18:38:57.744Z,65.73
2018-12-12T18:41:24.616Z,54.97
2018-12-12T18:43:51.339Z,55.53
2018-12-12T18:46:18.063Z,55.77
2018-12-12T18:48:44.826Z,56.07
2018-12-12T18:51:11.545Z,53.07
2018-12-12T18:53:38.268Z,47.70
2018-12-12T18:56:05.069Z,47.23
2018-12-12T18:58:31.814Z,49.20
2018-12-12T19:00:58.549Z,50.37
2018-12-12T19:03:25.316Z,49.67
2018-12-12T19:05:52.097Z,49.47
2018-12-12T19:08:18.867Z,51.87
2018-12-12T19:10:45.607Z,49.67
2018-12-12T19:13:12.325Z,43.63
2018-12-12T19:15:39.049Z,39.77
2018-12-12T19:18:05.864Z,39.73
2018-12-12T19:20:32.628Z,43.10
2018-12-12T19:22:59.512Z,43.70
2018-12-12T19:25:26.263Z,47.10
2018-12-12T19:27:53.005Z,42.10
2018-12-12T19:30:19.745Z,43.10
2018-12-12T19:32:46.518Z,45.23
2018-12-12T19:35:13.257Z,44.70
2018-12-12T19:37:40.004Z,39.17
2018-12-12T19:40:06.798Z,41.67
2018-12-12T19:42:33.584Z,45.20
2018-12-12T19:45:00.292Z,44.10
2018-12-12T19:47:27.061Z,37.70
2018-12-12T19:49:53.836Z,39.93
2018-12-12T19:52:20.604Z,41.50
2018-12-12T19:54:47.398Z,37.60
2018-12-12T19:57:14.140Z,39.10
2018-12-12T19:59:41.280Z,42.27
2018-12-12T20:02:08.043Z,42.70
2018-12-12T20:04:34.786Z,45.77
2018-12-12T20:07:01.701Z,42.13
2018-12-12T20:09:28.710Z,42.00
2018-12-12T20:11:55.554Z,44.33
2018-12-12T20:14:22.414Z,44.20
2018-12-12T20:16:49.184Z,42.67
2018-12-12T20:19:15.912Z,44.40
2018-12-12T20:21:42.634Z,41.80
2018-12-12T20:24:09.390Z,43.80
2018-12-12T20:26:36.116Z,37.93
2018-12-12T20:29:02.843Z,41.37
2018-12-12T20:31:29.626Z,38.43
2018-12-12T20:33:56.426Z,40.20
2018-12-12T20:36:23.193Z,36.00
2018-12-12T20:38:49.962Z,37.77
2018-12-12T20:41:16.854Z,32.60
2018-12-12T20:43:43.779Z,33.03
2018-12-12T20:46:10.541Z,34.20
2018-12-12T20:48:37.383Z,33.33
2018-12-12T20:51:04.127Z,27.20
2018-12-12T20:53:30.898Z,29.50
2018-12-12T20:55:57.621Z,27.67
2018-12-12T20:58:24.341Z,28.70
2018-12-12T21:00:51.106Z,26.83
2018-12-12T21:03:18.042Z,26.37
2018-12-12T21:05:44.807Z,26.27
2018-12-12T21:08:11.723Z,27.10
2018-12-12T21:10:38.459Z,21.60
2018-12-12T21:13:05.173Z,21.53
2018-12-12T21:15:31.939Z,23.17
2018-12-12T21:17:58.790Z,23.93
2018-12-12T21:20:25.632Z,21.57
2018-12-12T21:22:52.413Z,23.53
2018-12-12T21:25:19.134Z,23.80
2018-12-12T21:27:45.854Z,23.13
2018-12-12T21:30:17.273Z,23.73
2018-12-12T21:32:41.380Z,26.23
2018-12-12T21:35:08.097Z,27.20
2018-12-12T21:37:34.860Z,27.70
2018-12-12T21:40:01.631Z,28.23
2018-12-12T21:42:28.351Z,27.70
2018-12-12T21:44:55.316Z,26.40
2018-12-12T21:47:22.051Z,28.77
2018-12-12T21:49:48.768Z,25.77
2018-12-12T21:52:15.616Z,29.33
2018-12-12T21:54:42.339Z,29.03
2018-12-12T21:57:09.051Z,22.07
2018-12-12T21:59:35.836Z,19.60
2018-12-12T22:02:02.593Z,21.13
2018-12-12T22:04:29.433Z,24.20
2018-12-12T22:06:56.365Z,22.13
2018-12-12T22:09:23.096Z,22.60
2018-12-12T22:11:49.976Z,23.20
2018-12-12T22:14:16.912Z,25.10
2018-12-12T22:16:43.640Z,22.83
2018-12-12T22:19:10.432Z,22.57
2018-12-12T22:21:37.537Z,24.67
2018-12-12T22:24:04.395Z,25.77
2018-12-12T22:26:31.126Z,24.00
2018-12-12T22:28:57.890Z,21.53
2018-12-12T22:31:24.606Z,21.50
2018-12-12T22:33:51.311Z,22.73
2018-12-12T22:36:18.055Z,19.07
2018-12-12T22:38:44.802Z,20.27
2018-12-12T22:41:11.575Z,20.97
2018-12-12T22:43:38.376Z,21.10
2018-12-12T22:46:05.110Z,21.27
2018-12-12T22:48:31.824Z,22.17
2018-12-12T22:50:58.622Z,22.93
2018-12-12T22:53:25.342Z,25.23
2018-12-12T22:55:52.067Z,28.93
2018-12-12T22:58:18.839Z,22.17
2018-12-12T23:00:47.666Z,25.83
2018-12-12T23:03:14.419Z,26.43
2018-12-12T23:05:41.198Z,27.57
2018-12-12T23:08:08.171Z,25.90
2018-12-12T23:10:35.006Z,25.50
2018-12-12T23:13:01.960Z,23.43
2018-12-12T23:15:28.800Z,25.47
2018-12-12T23:17:55.541Z,24.50
2018-12-12T23:20:22.325Z,23.27
2018-12-12T23:22:49.051Z,26.23
2018-12-12T23:25:15.786Z,22.70
2018-12-12T23:27:42.578Z,23.77
2018-12-12T23:30:09.449Z,27.73
2018-12-12T23:32:36.186Z,29.53
2018-12-12T23:35:02.987Z,28.97
2018-12-12T23:37:29.721Z,31.73
2018-12-12T23:39:56.564Z,30.77
2018-12-12T23:42:23.352Z,32.13
2018-12-12T23:44:50.092Z,29.87
2018-12-12T23:47:16.838Z,30.90
2018-12-12T23:49:43.577Z,31.33
2018-12-12T23:52:10.311Z,27.70
2018-12-12T23:54:37.062Z,28.27
2018-12-12T23:57:03.836Z,29.30
2018-12-12T23:59:30.556Z,27.27
